sensor_id;sensor_type;location;lat;lon;timestamp;P1;durP1;ratioP1;P2;durP2;ratioP2
56114;SDS011;41988;53.020;6.576;2022-08-25T00:01:36;10.60;;;6.80;;
56114;SDS011;41988;53.020;6.576;2022-08-25T00:04:23;9.57;;;6.93;;
56114;SDS011;41988;53.020;6.576;2022-08-25T00:07:07;10.55;;;7.20;;
56114;SDS011;41988;53.020;6.576;2022-08-25T00:09:51;9.23;;;7.13;;
56114;SDS011;41988;53.020;6.576;2022-08-25T00:12:36;10.68;;;6.97;;
56114;SDS011;41988;53.020;6.576;2022-08-25T00:15:20;8.43;;;6.97;;
56114;SDS011;41988;53.020;6.576;2022-08-25T00:18:05;9.27;;;6.28;;
56114;SDS011;41988;53.020;6.576;2022-08-25T00:20:49;10.35;;;7.20;;
56114;SDS011;41988;53.020;6.576;2022-08-25T00:23:34;9.07;;;7.05;;
56114;SDS011;41988;53.020;6.576;2022-08-25T00:26:19;14.07;;;7.22;;
56114;SDS011;41988;53.020;6.576;2022-08-25T00:29:03;10.77;;;6.70;;
56114;SDS011;41988;53.020;6.576;2022-08-25T00:31:48;11.88;;;6.60;;
56114;SDS011;41988;53.020;6.576;2022-08-25T00:34:34;9.77;;;7.38;;
56114;SDS011;41988;53.020;6.576;2022-08-25T00:37:20;13.95;;;7.25;;
56114;SDS011;41988;53.020;6.576;2022-08-25T00:40:04;12.93;;;7.13;;
56114;SDS011;41988;53.020;6.576;2022-08-25T00:42:49;8.85;;;6.40;;
56114;SDS011;41988;53.020;6.576;2022-08-25T00:45:33;8.18;;;6.32;;
56114;SDS011;41988;53.020;6.576;2022-08-25T00:48:18;7.47;;;6.72;;
56114;SDS011;41988;53.020;6.576;2022-08-25T00:51:02;11.32;;;6.47;;
56114;SDS011;41988;53.020;6.576;2022-08-25T00:53:48;9.95;;;6.07;;
56114;SDS011;41988;53.020;6.576;2022-08-25T00:56:33;12.77;;;6.65;;
56114;SDS011;41988;53.020;6.576;2022-08-25T00:59:19;10.95;;;6.72;;
56114;SDS011;41988;53.020;6.576;2022-08-25T01:02:05;9.57;;;6.38;;
56114;SDS011;41988;53.020;6.576;2022-08-25T01:04:50;10.52;;;5.70;;
56114;SDS011;41988;53.020;6.576;2022-08-25T01:07:34;15.05;;;6.10;;
56114;SDS011;41988;53.020;6.576;2022-08-25T01:10:20;8.32;;;6.18;;
56114;SDS011;41988;53.020;6.576;2022-08-25T01:13:07;10.88;;;6.38;;
56114;SDS011;41988;53.020;6.576;2022-08-25T01:16:03;8.98;;;5.75;;
56114;SDS011;41988;53.020;6.576;2022-08-25T01:18:52;9.65;;;5.80;;
56114;SDS011;41988;53.020;6.576;2022-08-25T01:21:40;9.65;;;5.60;;
56114;SDS011;41988;53.020;6.576;2022-08-25T01:27:23;10.45;;;5.97;;
56114;SDS011;41988;53.020;6.576;2022-08-25T01:30:08;7.75;;;5.45;;
56114;SDS011;41988;53.020;6.576;2022-08-25T01:32:52;8.45;;;4.95;;
56114;SDS011;41988;53.020;6.576;2022-08-25T01:35:38;7.00;;;4.68;;
56114;SDS011;41988;53.020;6.576;2022-08-25T01:38:23;6.35;;;5.05;;
56114;SDS011;41988;53.020;6.576;2022-08-25T01:41:07;6.57;;;4.97;;
56114;SDS011;41988;53.020;6.576;2022-08-25T01:43:52;8.70;;;4.72;;
56114;SDS011;41988;53.020;6.576;2022-08-25T01:46:36;8.63;;;4.70;;
56114;SDS011;41988;53.020;6.576;2022-08-25T01:49:21;7.15;;;4.45;;
56114;SDS011;41988;53.020;6.576;2022-08-25T01:52:14;8.10;;;4.53;;
56114;SDS011;41988;53.020;6.576;2022-08-25T01:55:03;5.82;;;4.50;;
56114;SDS011;41988;53.020;6.576;2022-08-25T01:57:48;5.43;;;4.38;;
56114;SDS011;41988;53.020;6.576;2022-08-25T02:00:32;9.15;;;4.65;;
56114;SDS011;41988;53.020;6.576;2022-08-25T02:03:16;7.85;;;4.38;;
56114;SDS011;41988;53.020;6.576;2022-08-25T02:06:02;12.18;;;4.93;;
56114;SDS011;41988;53.020;6.576;2022-08-25T02:08:51;7.82;;;4.55;;
56114;SDS011;41988;53.020;6.576;2022-08-25T02:11:37;8.10;;;4.47;;
56114;SDS011;41988;53.020;6.576;2022-08-25T02:14:24;6.32;;;4.10;;
56114;SDS011;41988;53.020;6.576;2022-08-25T02:17:09;9.30;;;4.47;;
56114;SDS011;41988;53.020;6.576;2022-08-25T02:19:53;6.28;;;4.00;;
56114;SDS011;41988;53.020;6.576;2022-08-25T02:22:39;8.45;;;4.10;;
56114;SDS011;41988;53.020;6.576;2022-08-25T02:25:23;7.03;;;4.20;;
56114;SDS011;41988;53.020;6.576;2022-08-25T02:28:08;6.20;;;4.30;;
56114;SDS011;41988;53.020;6.576;2022-08-25T02:30:53;8.00;;;4.22;;
56114;SDS011;41988;53.020;6.576;2022-08-25T02:33:37;8.75;;;3.90;;
56114;SDS011;41988;53.020;6.576;2022-08-25T02:36:21;7.50;;;3.97;;
56114;SDS011;41988;53.020;6.576;2022-08-25T02:39:06;8.20;;;3.88;;
56114;SDS011;41988;53.020;6.576;2022-08-25T02:41:51;5.55;;;3.70;;
56114;SDS011;41988;53.020;6.576;2022-08-25T02:44:36;11.07;;;4.70;;
56114;SDS011;41988;53.020;6.576;2022-08-25T02:47:20;5.75;;;3.60;;
56114;SDS011;41988;53.020;6.576;2022-08-25T02:50:05;7.22;;;3.78;;
56114;SDS011;41988;53.020;6.576;2022-08-25T02:52:50;8.80;;;3.85;;
56114;SDS011;41988;53.020;6.576;2022-08-25T02:55:35;5.72;;;3.53;;
56114;SDS011;41988;53.020;6.576;2022-08-25T02:58:19;7.88;;;4.00;;
56114;SDS011;41988;53.020;6.576;2022-08-25T03:01:04;7.38;;;3.45;;
56114;SDS011;41988;53.020;6.576;2022-08-25T03:03:49;7.30;;;3.80;;
56114;SDS011;41988;53.020;6.576;2022-08-25T03:06:34;4.57;;;3.63;;
56114;SDS011;41988;53.020;6.576;2022-08-25T03:09:19;7.13;;;4.18;;
56114;SDS011;41988;53.020;6.576;2022-08-25T03:12:03;8.50;;;4.07;;
56114;SDS011;41988;53.020;6.576;2022-08-25T03:14:48;8.88;;;4.10;;
56114;SDS011;41988;53.020;6.576;2022-08-25T03:17:33;9.57;;;3.92;;
56114;SDS011;41988;53.020;6.576;2022-08-25T03:20:18;9.13;;;3.78;;
56114;SDS011;41988;53.020;6.576;2022-08-25T03:23:03;7.72;;;3.85;;
56114;SDS011;41988;53.020;6.576;2022-08-25T03:25:48;4.85;;;3.95;;
56114;SDS011;41988;53.020;6.576;2022-08-25T03:28:51;6.38;;;3.63;;
56114;SDS011;41988;53.020;6.576;2022-08-25T03:31:37;6.80;;;4.25;;
56114;SDS011;41988;53.020;6.576;2022-08-25T03:34:22;6.20;;;4.07;;
56114;SDS011;41988;53.020;6.576;2022-08-25T03:37:06;6.50;;;3.97;;
56114;SDS011;41988;53.020;6.576;2022-08-25T03:39:51;6.20;;;3.90;;
56114;SDS011;41988;53.020;6.576;2022-08-25T03:42:39;6.50;;;3.67;;
56114;SDS011;41988;53.020;6.576;2022-08-25T03:45:24;5.45;;;3.78;;
56114;SDS011;41988;53.020;6.576;2022-08-25T03:48:08;8.05;;;3.63;;
56114;SDS011;41988;53.020;6.576;2022-08-25T03:50:53;8.75;;;4.57;;
56114;SDS011;41988;53.020;6.576;2022-08-25T03:53:37;11.43;;;4.47;;
56114;SDS011;41988;53.020;6.576;2022-08-25T03:56:21;6.10;;;3.80;;
56114;SDS011;41988;53.020;6.576;2022-08-25T03:59:06;6.53;;;4.22;;
56114;SDS011;41988;53.020;6.576;2022-08-25T04:01:53;5.13;;;3.80;;
56114;SDS011;41988;53.020;6.576;2022-08-25T04:04:37;8.68;;;4.03;;
56114;SDS011;41988;53.020;6.576;2022-08-25T04:07:23;7.65;;;3.83;;
56114;SDS011;41988;53.020;6.576;2022-08-25T04:10:08;11.32;;;4.38;;
56114;SDS011;41988;53.020;6.576;2022-08-25T04:12:53;7.97;;;4.22;;
56114;SDS011;41988;53.020;6.576;2022-08-25T04:15:41;10.70;;;4.32;;
56114;SDS011;41988;53.020;6.576;2022-08-25T04:18:25;8.75;;;3.90;;
56114;SDS011;41988;53.020;6.576;2022-08-25T04:21:10;5.57;;;4.15;;
56114;SDS011;41988;53.020;6.576;2022-08-25T04:23:55;9.25;;;4.97;;
56114;SDS011;41988;53.020;6.576;2022-08-25T04:26:41;5.85;;;3.90;;
56114;SDS011;41988;53.020;6.576;2022-08-25T04:29:28;8.90;;;4.57;;
56114;SDS011;41988;53.020;6.576;2022-08-25T04:32:13;7.35;;;3.65;;
56114;SDS011;41988;53.020;6.576;2022-08-25T04:34:57;8.43;;;4.50;;
56114;SDS011;41988;53.020;6.576;2022-08-25T04:37:42;8.18;;;4.35;;
56114;SDS011;41988;53.020;6.576;2022-08-25T04:40:26;6.53;;;4.20;;
56114;SDS011;41988;53.020;6.576;2022-08-25T04:43:10;7.65;;;4.20;;
56114;SDS011;41988;53.020;6.576;2022-08-25T04:45:55;10.95;;;4.28;;
56114;SDS011;41988;53.020;6.576;2022-08-25T04:48:39;8.48;;;4.10;;
56114;SDS011;41988;53.020;6.576;2022-08-25T04:51:25;11.75;;;4.45;;
56114;SDS011;41988;53.020;6.576;2022-08-25T04:54:15;8.82;;;4.22;;
56114;SDS011;41988;53.020;6.576;2022-08-25T04:57:04;7.78;;;4.10;;
56114;SDS011;41988;53.020;6.576;2022-08-25T04:59:49;8.80;;;4.03;;
56114;SDS011;41988;53.020;6.576;2022-08-25T05:02:33;11.65;;;4.20;;
56114;SDS011;41988;53.020;6.576;2022-08-25T05:05:18;10.68;;;4.18;;
56114;SDS011;41988;53.020;6.576;2022-08-25T05:08:02;8.93;;;4.40;;
56114;SDS011;41988;53.020;6.576;2022-08-25T05:10:48;8.75;;;5.25;;
56114;SDS011;41988;53.020;6.576;2022-08-25T05:13:33;8.00;;;4.07;;
56114;SDS011;41988;53.020;6.576;2022-08-25T05:16:18;6.82;;;4.07;;
56114;SDS011;41988;53.020;6.576;2022-08-25T05:19:04;9.50;;;4.38;;
56114;SDS011;41988;53.020;6.576;2022-08-25T05:21:48;9.30;;;4.35;;
56114;SDS011;41988;53.020;6.576;2022-08-25T05:24:32;7.63;;;4.30;;
56114;SDS011;41988;53.020;6.576;2022-08-25T05:27:17;8.00;;;4.68;;
56114;SDS011;41988;53.020;6.576;2022-08-25T05:30:01;8.88;;;4.63;;
56114;SDS011;41988;53.020;6.576;2022-08-25T05:32:46;7.22;;;4.18;;
56114;SDS011;41988;53.020;6.576;2022-08-25T05:35:30;8.23;;;4.35;;
56114;SDS011;41988;53.020;6.576;2022-08-25T05:38:15;6.47;;;4.32;;
56114;SDS011;41988;53.020;6.576;2022-08-25T05:41:03;5.60;;;4.00;;
56114;SDS011;41988;53.020;6.576;2022-08-25T05:43:49;6.78;;;4.57;;
56114;SDS011;41988;53.020;6.576;2022-08-25T05:46:33;7.18;;;4.50;;
56114;SDS011;41988;53.020;6.576;2022-08-25T05:49:17;9.32;;;4.82;;
56114;SDS011;41988;53.020;6.576;2022-08-25T05:52:02;9.43;;;4.40;;
56114;SDS011;41988;53.020;6.576;2022-08-25T05:54:46;7.90;;;4.35;;
56114;SDS011;41988;53.020;6.576;2022-08-25T05:57:31;6.80;;;3.97;;
56114;SDS011;41988;53.020;6.576;2022-08-25T06:00:16;10.07;;;4.30;;
56114;SDS011;41988;53.020;6.576;2022-08-25T06:03:01;10.27;;;4.38;;
56114;SDS011;41988;53.020;6.576;2022-08-25T06:05:45;9.95;;;4.18;;
56114;SDS011;41988;53.020;6.576;2022-08-25T06:08:30;13.45;;;4.85;;
56114;SDS011;41988;53.020;6.576;2022-08-25T06:11:17;8.07;;;4.25;;
56114;SDS011;41988;53.020;6.576;2022-08-25T06:14:01;8.20;;;3.97;;
56114;SDS011;41988;53.020;6.576;2022-08-25T06:16:47;7.45;;;3.85;;
56114;SDS011;41988;53.020;6.576;2022-08-25T06:19:34;9.30;;;4.15;;
56114;SDS011;41988;53.020;6.576;2022-08-25T06:22:18;5.55;;;4.10;;
56114;SDS011;41988;53.020;6.576;2022-08-25T06:25:03;7.75;;;4.40;;
56114;SDS011;41988;53.020;6.576;2022-08-25T06:27:48;6.55;;;4.13;;
56114;SDS011;41988;53.020;6.576;2022-08-25T06:30:33;11.57;;;4.30;;
56114;SDS011;41988;53.020;6.576;2022-08-25T06:33:18;10.50;;;3.67;;
56114;SDS011;41988;53.020;6.576;2022-08-25T06:36:03;10.60;;;4.40;;
56114;SDS011;41988;53.020;6.576;2022-08-25T06:38:48;6.90;;;3.72;;
56114;SDS011;41988;53.020;6.576;2022-08-25T06:41:32;7.60;;;3.70;;
56114;SDS011;41988;53.020;6.576;2022-08-25T06:44:17;7.97;;;3.95;;
56114;SDS011;41988;53.020;6.576;2022-08-25T06:47:01;6.22;;;3.53;;
56114;SDS011;41988;53.020;6.576;2022-08-25T06:49:46;9.35;;;3.83;;
56114;SDS011;41988;53.020;6.576;2022-08-25T06:52:30;8.77;;;3.92;;
56114;SDS011;41988;53.020;6.576;2022-08-25T06:55:15;8.02;;;3.53;;
56114;SDS011;41988;53.020;6.576;2022-08-25T06:57:59;7.68;;;4.20;;
56114;SDS011;41988;53.020;6.576;2022-08-25T07:00:45;10.30;;;3.65;;
56114;SDS011;41988;53.020;6.576;2022-08-25T07:03:30;7.15;;;3.80;;
56114;SDS011;41988;53.020;6.576;2022-08-25T07:06:15;10.25;;;3.83;;
56114;SDS011;41988;53.020;6.576;2022-08-25T07:09:02;8.73;;;3.15;;
56114;SDS011;41988;53.020;6.576;2022-08-25T07:11:47;6.22;;;3.05;;
56114;SDS011;41988;53.020;6.576;2022-08-25T07:14:31;6.20;;;3.72;;
56114;SDS011;41988;53.020;6.576;2022-08-25T07:17:16;7.60;;;3.20;;
56114;SDS011;41988;53.020;6.576;2022-08-25T07:20:01;5.70;;;3.42;;
56114;SDS011;41988;53.020;6.576;2022-08-25T07:22:46;8.05;;;3.65;;
56114;SDS011;41988;53.020;6.576;2022-08-25T07:25:32;7.22;;;3.30;;
56114;SDS011;41988;53.020;6.576;2022-08-25T07:28:17;7.43;;;3.17;;
56114;SDS011;41988;53.020;6.576;2022-08-25T07:31:02;8.02;;;3.38;;
56114;SDS011;41988;53.020;6.576;2022-08-25T07:33:46;5.78;;;3.10;;
56114;SDS011;41988;53.020;6.576;2022-08-25T07:36:49;7.38;;;3.17;;
56114;SDS011;41988;53.020;6.576;2022-08-25T07:39:34;5.75;;;3.72;;
56114;SDS011;41988;53.020;6.576;2022-08-25T07:42:18;7.55;;;3.88;;
56114;SDS011;41988;53.020;6.576;2022-08-25T07:45:04;8.00;;;3.50;;
56114;SDS011;41988;53.020;6.576;2022-08-25T07:47:49;8.60;;;3.40;;
56114;SDS011;41988;53.020;6.576;2022-08-25T07:50:37;8.63;;;3.58;;
56114;SDS011;41988;53.020;6.576;2022-08-25T07:53:24;8.43;;;4.25;;
56114;SDS011;41988;53.020;6.576;2022-08-25T07:56:14;5.80;;;2.90;;
56114;SDS011;41988;53.020;6.576;2022-08-25T07:58:59;5.70;;;3.40;;
56114;SDS011;41988;53.020;6.576;2022-08-25T08:01:44;7.93;;;3.30;;
56114;SDS011;41988;53.020;6.576;2022-08-25T08:04:29;6.10;;;3.55;;
56114;SDS011;41988;53.020;6.576;2022-08-25T08:07:15;9.45;;;3.80;;
56114;SDS011;41988;53.020;6.576;2022-08-25T08:10:02;6.65;;;3.53;;
56114;SDS011;41988;53.020;6.576;2022-08-25T08:12:48;7.10;;;3.70;;
56114;SDS011;41988;53.020;6.576;2022-08-25T08:15:33;6.90;;;3.55;;
56114;SDS011;41988;53.020;6.576;2022-08-25T08:18:18;5.72;;;3.40;;
56114;SDS011;41988;53.020;6.576;2022-08-25T08:21:03;9.55;;;4.25;;
56114;SDS011;41988;53.020;6.576;2022-08-25T08:23:48;5.88;;;3.58;;
56114;SDS011;41988;53.020;6.576;2022-08-25T08:26:34;9.18;;;3.35;;
56114;SDS011;41988;53.020;6.576;2022-08-25T08:29:18;9.95;;;3.28;;
56114;SDS011;41988;53.020;6.576;2022-08-25T08:32:05;11.23;;;3.50;;
56114;SDS011;41988;53.020;6.576;2022-08-25T08:34:52;9.77;;;3.22;;
56114;SDS011;41988;53.020;6.576;2022-08-25T08:37:36;7.90;;;3.15;;
56114;SDS011;41988;53.020;6.576;2022-08-25T08:40:24;6.32;;;3.22;;
56114;SDS011;41988;53.020;6.576;2022-08-25T08:43:10;6.35;;;2.92;;
56114;SDS011;41988;53.020;6.576;2022-08-25T08:46:01;8.85;;;2.83;;
56114;SDS011;41988;53.020;6.576;2022-08-25T08:51:32;5.38;;;2.97;;
56114;SDS011;41988;53.020;6.576;2022-08-25T08:54:33;3.88;;;2.88;;
56114;SDS011;41988;53.020;6.576;2022-08-25T08:57:23;7.93;;;2.97;;
56114;SDS011;41988;53.020;6.576;2022-08-25T09:00:09;6.03;;;2.55;;
56114;SDS011;41988;53.020;6.576;2022-08-25T09:05:50;7.38;;;2.70;;
56114;SDS011;41988;53.020;6.576;2022-08-25T09:08:38;5.22;;;2.90;;
56114;SDS011;41988;53.020;6.576;2022-08-25T09:17:36;5.72;;;2.63;;
56114;SDS011;41988;53.020;6.576;2022-08-25T09:30:16;5.05;;;2.60;;
56114;SDS011;41988;53.020;6.576;2022-08-25T09:33:02;8.85;;;3.10;;
56114;SDS011;41988;53.020;6.576;2022-08-25T09:35:47;4.40;;;2.10;;
56114;SDS011;41988;53.020;6.576;2022-08-25T09:38:33;8.35;;;2.45;;
56114;SDS011;41988;53.020;6.576;2022-08-25T09:41:33;7.03;;;2.30;;
56114;SDS011;41988;53.020;6.576;2022-08-25T09:44:38;6.15;;;2.15;;
56114;SDS011;41988;53.020;6.576;2022-08-25T09:47:25;6.57;;;2.70;;
56114;SDS011;41988;53.020;6.576;2022-08-25T09:50:14;7.07;;;1.98;;
56114;SDS011;41988;53.020;6.576;2022-08-25T09:53:14;7.80;;;2.42;;
56114;SDS011;41988;53.020;6.576;2022-08-25T09:56:03;3.65;;;1.88;;
56114;SDS011;41988;53.020;6.576;2022-08-25T09:58:50;7.75;;;1.85;;
56114;SDS011;41988;53.020;6.576;2022-08-25T10:01:34;6.72;;;2.38;;
56114;SDS011;41988;53.020;6.576;2022-08-25T10:04:35;6.70;;;2.40;;
56114;SDS011;41988;53.020;6.576;2022-08-25T10:07:23;4.57;;;2.22;;
56114;SDS011;41988;53.020;6.576;2022-08-25T10:10:21;6.57;;;2.50;;
56114;SDS011;41988;53.020;6.576;2022-08-25T10:13:19;5.55;;;2.20;;
56114;SDS011;41988;53.020;6.576;2022-08-25T10:16:10;5.25;;;2.58;;
56114;SDS011;41988;53.020;6.576;2022-08-25T10:19:05;5.18;;;2.30;;
56114;SDS011;41988;53.020;6.576;2022-08-25T10:27:44;3.30;;;2.13;;
56114;SDS011;41988;53.020;6.576;2022-08-25T10:30:36;4.95;;;2.00;;
56114;SDS011;41988;53.020;6.576;2022-08-25T10:33:27;10.18;;;4.25;;
56114;SDS011;41988;53.020;6.576;2022-08-25T10:51:06;3.58;;;1.90;;
56114;SDS011;41988;53.020;6.576;2022-08-25T10:56:42;4.38;;;2.20;;
56114;SDS011;41988;53.020;6.576;2022-08-25T11:05:09;8.57;;;2.53;;
56114;SDS011;41988;53.020;6.576;2022-08-25T11:08:03;10.88;;;2.60;;
56114;SDS011;41988;53.020;6.576;2022-08-25T11:10:59;5.25;;;2.08;;
56114;SDS011;41988;53.020;6.576;2022-08-25T11:13:46;5.10;;;2.35;;
56114;SDS011;41988;53.020;6.576;2022-08-25T11:16:58;5.07;;;2.17;;
56114;SDS011;41988;53.020;6.576;2022-08-25T11:19:51;4.40;;;2.17;;
56114;SDS011;41988;53.020;6.576;2022-08-25T11:22:49;4.88;;;2.03;;
56114;SDS011;41988;53.020;6.576;2022-08-25T11:25:42;4.68;;;2.25;;
56114;SDS011;41988;53.020;6.576;2022-08-25T11:28:32;4.60;;;2.13;;
56114;SDS011;41988;53.020;6.576;2022-08-25T11:31:45;5.63;;;2.17;;
56114;SDS011;41988;53.020;6.576;2022-08-25T11:34:34;5.38;;;2.45;;
56114;SDS011;41988;53.020;6.576;2022-08-25T11:37:20;4.60;;;2.58;;
56114;SDS011;41988;53.020;6.576;2022-08-25T11:40:19;5.63;;;2.00;;
56114;SDS011;41988;53.020;6.576;2022-08-25T11:49:14;4.78;;;2.40;;
56114;SDS011;41988;53.020;6.576;2022-08-25T11:52:54;6.43;;;2.30;;
56114;SDS011;41988;53.020;6.576;2022-08-25T11:58:25;7.25;;;2.10;;
56114;SDS011;41988;53.020;6.576;2022-08-25T12:07:25;5.10;;;2.65;;
56114;SDS011;41988;53.020;6.576;2022-08-25T12:10:28;4.38;;;2.30;;
56114;SDS011;41988;53.020;6.576;2022-08-25T12:16:38;4.90;;;2.13;;
56114;SDS011;41988;53.020;6.576;2022-08-25T12:28:23;3.55;;;2.08;;
56114;SDS011;41988;53.020;6.576;2022-08-25T12:31:43;3.97;;;2.40;;
56114;SDS011;41988;53.020;6.576;2022-08-25T12:34:53;5.72;;;2.10;;
56114;SDS011;41988;53.020;6.576;2022-08-25T12:43:31;6.68;;;2.40;;
56114;SDS011;41988;53.020;6.576;2022-08-25T12:49:28;4.85;;;2.20;;
56114;SDS011;41988;53.020;6.576;2022-08-25T12:52:15;7.47;;;2.55;;
56114;SDS011;41988;53.020;6.576;2022-08-25T12:55:03;5.43;;;2.40;;
56114;SDS011;41988;53.020;6.576;2022-08-25T12:57:52;4.72;;;2.10;;
56114;SDS011;41988;53.020;6.576;2022-08-25T13:06:31;5.50;;;2.30;;
56114;SDS011;41988;53.020;6.576;2022-08-25T13:09:45;5.60;;;2.50;;
56114;SDS011;41988;53.020;6.576;2022-08-25T13:16:04;4.18;;;1.92;;
56114;SDS011;41988;53.020;6.576;2022-08-25T13:18:58;3.97;;;1.95;;
56114;SDS011;41988;53.020;6.576;2022-08-25T13:21:48;4.97;;;2.40;;
56114;SDS011;41988;53.020;6.576;2022-08-25T13:24:33;4.15;;;2.13;;
56114;SDS011;41988;53.020;6.576;2022-08-25T13:27:26;4.85;;;2.30;;
56114;SDS011;41988;53.020;6.576;2022-08-25T13:30:45;5.32;;;2.17;;
56114;SDS011;41988;53.020;6.576;2022-08-25T13:33:23;5.97;;;2.13;;
56114;SDS011;41988;53.020;6.576;2022-08-25T13:36:14;5.35;;;2.50;;
56114;SDS011;41988;53.020;6.576;2022-08-25T13:39:23;6.35;;;2.00;;
56114;SDS011;41988;53.020;6.576;2022-08-25T13:42:13;4.47;;;2.13;;
56114;SDS011;41988;53.020;6.576;2022-08-25T13:44:59;6.00;;;2.08;;
56114;SDS011;41988;53.020;6.576;2022-08-25T13:47:44;7.30;;;2.10;;
56114;SDS011;41988;53.020;6.576;2022-08-25T13:50:34;4.18;;;2.08;;
56114;SDS011;41988;53.020;6.576;2022-08-25T13:53:21;3.33;;;2.08;;
56114;SDS011;41988;53.020;6.576;2022-08-25T13:56:07;3.35;;;1.80;;
56114;SDS011;41988;53.020;6.576;2022-08-25T13:58:53;4.13;;;1.98;;
56114;SDS011;41988;53.020;6.576;2022-08-25T14:01:42;3.53;;;2.33;;
56114;SDS011;41988;53.020;6.576;2022-08-25T14:10:05;3.67;;;2.10;;
56114;SDS011;41988;53.020;6.576;2022-08-25T14:13:06;6.75;;;2.63;;
56114;SDS011;41988;53.020;6.576;2022-08-25T14:15:52;3.90;;;2.25;;
56114;SDS011;41988;53.020;6.576;2022-08-25T14:18:36;5.20;;;2.40;;
56114;SDS011;41988;53.020;6.576;2022-08-25T14:21:24;4.13;;;2.53;;
56114;SDS011;41988;53.020;6.576;2022-08-25T14:24:16;5.47;;;2.50;;
56114;SDS011;41988;53.020;6.576;2022-08-25T14:27:02;4.13;;;2.40;;
56114;SDS011;41988;53.020;6.576;2022-08-25T14:29:47;6.80;;;2.40;;
56114;SDS011;41988;53.020;6.576;2022-08-25T14:32:32;5.13;;;2.50;;
56114;SDS011;41988;53.020;6.576;2022-08-25T14:35:16;4.93;;;2.45;;
56114;SDS011;41988;53.020;6.576;2022-08-25T14:38:07;4.35;;;2.63;;
56114;SDS011;41988;53.020;6.576;2022-08-25T14:40:53;3.70;;;1.83;;
56114;SDS011;41988;53.020;6.576;2022-08-25T14:43:37;4.60;;;2.40;;
56114;SDS011;41988;53.020;6.576;2022-08-25T14:46:23;6.78;;;2.90;;
56114;SDS011;41988;53.020;6.576;2022-08-25T14:49:11;5.07;;;2.50;;
56114;SDS011;41988;53.020;6.576;2022-08-25T14:52:05;4.63;;;2.50;;
56114;SDS011;41988;53.020;6.576;2022-08-25T14:54:55;5.93;;;2.47;;
56114;SDS011;41988;53.020;6.576;2022-08-25T14:57:40;5.93;;;3.15;;
56114;SDS011;41988;53.020;6.576;2022-08-25T15:00:25;5.65;;;2.50;;
56114;SDS011;41988;53.020;6.576;2022-08-25T15:03:11;5.38;;;2.42;;
56114;SDS011;41988;53.020;6.576;2022-08-25T15:05:59;4.53;;;2.42;;
56114;SDS011;41988;53.020;6.576;2022-08-25T15:08:43;8.02;;;2.72;;
56114;SDS011;41988;53.020;6.576;2022-08-25T15:11:49;7.75;;;2.78;;
56114;SDS011;41988;53.020;6.576;2022-08-25T15:14:35;5.45;;;2.60;;
56114;SDS011;41988;53.020;6.576;2022-08-25T15:17:22;3.88;;;2.40;;
56114;SDS011;41988;53.020;6.576;2022-08-25T15:20:07;7.13;;;2.50;;
56114;SDS011;41988;53.020;6.576;2022-08-25T15:22:52;5.60;;;2.63;;
56114;SDS011;41988;53.020;6.576;2022-08-25T15:25:43;5.97;;;2.55;;
56114;SDS011;41988;53.020;6.576;2022-08-25T15:28:29;7.03;;;2.55;;
56114;SDS011;41988;53.020;6.576;2022-08-25T15:31:15;6.13;;;2.80;;
56114;SDS011;41988;53.020;6.576;2022-08-25T15:34:00;5.00;;;2.90;;
56114;SDS011;41988;53.020;6.576;2022-08-25T15:36:44;4.80;;;2.65;;
56114;SDS011;41988;53.020;6.576;2022-08-25T15:39:29;3.78;;;2.70;;
56114;SDS011;41988;53.020;6.576;2022-08-25T15:42:14;11.93;;;3.38;;
56114;SDS011;41988;53.020;6.576;2022-08-25T15:44:58;5.43;;;2.60;;
56114;SDS011;41988;53.020;6.576;2022-08-25T15:47:43;10.63;;;2.95;;
56114;SDS011;41988;53.020;6.576;2022-08-25T15:50:28;5.22;;;2.90;;
56114;SDS011;41988;53.020;6.576;2022-08-25T15:53:13;5.38;;;2.65;;
56114;SDS011;41988;53.020;6.576;2022-08-25T15:55:57;6.75;;;2.65;;
56114;SDS011;41988;53.020;6.576;2022-08-25T15:58:41;6.35;;;2.72;;
56114;SDS011;41988;53.020;6.576;2022-08-25T16:01:27;5.65;;;2.72;;
56114;SDS011;41988;53.020;6.576;2022-08-25T16:04:12;4.40;;;2.70;;
56114;SDS011;41988;53.020;6.576;2022-08-25T16:06:57;3.58;;;2.80;;
56114;SDS011;41988;53.020;6.576;2022-08-25T16:09:42;6.50;;;2.38;;
56114;SDS011;41988;53.020;6.576;2022-08-25T16:12:27;7.40;;;2.28;;
56114;SDS011;41988;53.020;6.576;2022-08-25T16:15:11;3.70;;;2.22;;
56114;SDS011;41988;53.020;6.576;2022-08-25T16:17:59;6.13;;;2.40;;
56114;SDS011;41988;53.020;6.576;2022-08-25T16:20:45;4.50;;;2.53;;
56114;SDS011;41988;53.020;6.576;2022-08-25T16:23:30;6.40;;;2.35;;
56114;SDS011;41988;53.020;6.576;2022-08-25T16:26:14;4.10;;;2.10;;
56114;SDS011;41988;53.020;6.576;2022-08-25T16:28:58;7.05;;;2.78;;
56114;SDS011;41988;53.020;6.576;2022-08-25T16:31:43;3.95;;;2.13;;
56114;SDS011;41988;53.020;6.576;2022-08-25T16:34:28;4.47;;;2.33;;
56114;SDS011;41988;53.020;6.576;2022-08-25T16:37:13;4.95;;;2.17;;
56114;SDS011;41988;53.020;6.576;2022-08-25T16:39:57;4.97;;;2.03;;
56114;SDS011;41988;53.020;6.576;2022-08-25T16:42:42;4.57;;;2.65;;
56114;SDS011;41988;53.020;6.576;2022-08-25T16:45:26;4.60;;;2.33;;
56114;SDS011;41988;53.020;6.576;2022-08-25T16:48:11;3.97;;;2.33;;
56114;SDS011;41988;53.020;6.576;2022-08-25T16:50:55;7.45;;;2.40;;
56114;SDS011;41988;53.020;6.576;2022-08-25T16:53:41;3.83;;;2.13;;
56114;SDS011;41988;53.020;6.576;2022-08-25T16:56:44;4.68;;;2.20;;
56114;SDS011;41988;53.020;6.576;2022-08-25T16:59:29;3.08;;;1.90;;
56114;SDS011;41988;53.020;6.576;2022-08-25T17:02:13;3.95;;;2.00;;
56114;SDS011;41988;53.020;6.576;2022-08-25T17:04:58;4.85;;;2.75;;
56114;SDS011;41988;53.020;6.576;2022-08-25T17:07:43;6.47;;;2.80;;
56114;SDS011;41988;53.020;6.576;2022-08-25T17:10:47;5.57;;;2.90;;
56114;SDS011;41988;53.020;6.576;2022-08-25T17:13:33;5.53;;;2.50;;
56114;SDS011;41988;53.020;6.576;2022-08-25T17:16:19;6.80;;;3.00;;
56114;SDS011;41988;53.020;6.576;2022-08-25T17:19:06;7.85;;;2.55;;
56114;SDS011;41988;53.020;6.576;2022-08-25T17:21:52;4.63;;;2.70;;
56114;SDS011;41988;53.020;6.576;2022-08-25T17:24:37;4.47;;;2.50;;
56114;SDS011;41988;53.020;6.576;2022-08-25T17:27:22;5.15;;;2.60;;
56114;SDS011;41988;53.020;6.576;2022-08-25T17:30:06;4.35;;;3.10;;
56114;SDS011;41988;53.020;6.576;2022-08-25T17:32:51;3.85;;;2.60;;
56114;SDS011;41988;53.020;6.576;2022-08-25T17:35:43;4.85;;;2.95;;
56114;SDS011;41988;53.020;6.576;2022-08-25T17:38:29;4.50;;;3.35;;
56114;SDS011;41988;53.020;6.576;2022-08-25T17:41:16;4.50;;;2.67;;
56114;SDS011;41988;53.020;6.576;2022-08-25T17:44:00;6.18;;;3.25;;
56114;SDS011;41988;53.020;6.576;2022-08-25T17:46:45;8.55;;;3.42;;
56114;SDS011;41988;53.020;6.576;2022-08-25T17:49:29;7.05;;;3.15;;
56114;SDS011;41988;53.020;6.576;2022-08-25T17:52:14;3.92;;;2.33;;
56114;SDS011;41988;53.020;6.576;2022-08-25T17:54:59;7.00;;;2.88;;
56114;SDS011;41988;53.020;6.576;2022-08-25T17:57:44;6.25;;;2.90;;
56114;SDS011;41988;53.020;6.576;2022-08-25T18:00:29;7.53;;;2.88;;
56114;SDS011;41988;53.020;6.576;2022-08-25T18:03:15;7.40;;;3.03;;
56114;SDS011;41988;53.020;6.576;2022-08-25T18:05:59;6.03;;;3.13;;
56114;SDS011;41988;53.020;6.576;2022-08-25T18:08:45;8.63;;;3.08;;
56114;SDS011;41988;53.020;6.576;2022-08-25T18:11:30;6.20;;;2.90;;
56114;SDS011;41988;53.020;6.576;2022-08-25T18:14:15;7.55;;;2.72;;
56114;SDS011;41988;53.020;6.576;2022-08-25T18:17:01;6.57;;;3.20;;
56114;SDS011;41988;53.020;6.576;2022-08-25T18:19:46;6.95;;;3.25;;
56114;SDS011;41988;53.020;6.576;2022-08-25T18:22:32;10.32;;;3.80;;
56114;SDS011;41988;53.020;6.576;2022-08-25T18:25:17;6.13;;;3.60;;
56114;SDS011;41988;53.020;6.576;2022-08-25T18:28:02;6.10;;;3.10;;
56114;SDS011;41988;53.020;6.576;2022-08-25T18:30:46;7.82;;;3.40;;